Aviation Digital Data Service (ADDS)

Output produced by METARs form (0634 UTC 24 November 2014)
found at http://www.aviationweather.gov/adds/metars/
 
KEWR 240539Z 2406/2512 16004KT P6SM -SHRA BKN025 
     FM240700 14008KT 6SM -SHRA BR BKN010 
     FM240800 14013KT 2SM RA BR OVC005 WS020/16045KT 
     FM241000 16016G28KT 2SM RA BR OVC004 WS020/17055KT 
     FM241300 18018G32KT 3SM SHRA BR OVC006 WS020/21045KT 
     FM241500 20015G28KT 6SM BR SCT008 BKN015 
     FM241900 21018G32KT P6SM SCT015 BKN040 
     FM250200 21015G25KT P6SM BKN015 BKN040 
     FM250900 25010KT P6SM SCT020 BKN100